sensor_id;sensor_type;location;lat;lon;timestamp;P1;durP1;ratioP1;P2;durP2;ratioP2
71570;SDS011;59407;42.682;23.322;2024-03-02T05:10:44;35.07;;;15.03;;
71570;SDS011;59407;42.682;23.322;2024-03-02T05:13:10;33.38;;;15.38;;
71570;SDS011;59407;42.682;23.322;2024-03-02T05:15:36;37.80;;;16.13;;
71570;SDS011;59407;42.682;23.322;2024-03-02T05:18:01;36.33;;;15.85;;
71570;SDS011;59407;42.682;23.322;2024-03-02T05:20:30;38.85;;;15.98;;
71570;SDS011;59407;42.682;23.322;2024-03-02T05:22:55;42.50;;;17.97;;
71570;SDS011;59407;42.682;23.322;2024-03-02T05:25:21;42.00;;;16.90;;
71570;SDS011;59407;42.682;23.322;2024-03-02T05:27:47;40.63;;;17.05;;
71570;SDS011;59407;42.682;23.322;2024-03-02T05:30:12;42.07;;;18.80;;
71570;SDS011;59407;42.682;23.322;2024-03-02T05:32:38;36.67;;;17.15;;
71570;SDS011;59407;42.682;23.322;2024-03-02T05:35:04;42.67;;;19.27;;
71570;SDS011;59407;42.682;23.322;2024-03-02T05:37:30;38.30;;;17.33;;
71570;SDS011;59407;42.682;23.322;2024-03-02T05:39:55;42.83;;;17.83;;
71570;SDS011;59407;42.682;23.322;2024-03-02T05:42:21;39.55;;;17.17;;
71570;SDS011;59407;42.682;23.322;2024-03-02T05:44:47;38.33;;;16.63;;
71570;SDS011;59407;42.682;23.322;2024-03-02T05:47:12;41.45;;;17.80;;
71570;SDS011;59407;42.682;23.322;2024-03-02T05:49:38;36.80;;;17.30;;
71570;SDS011;59407;42.682;23.322;2024-03-02T05:52:04;37.75;;;17.05;;
71570;SDS011;59407;42.682;23.322;2024-03-02T05:54:29;43.40;;;17.77;;
71570;SDS011;59407;42.682;23.322;2024-03-02T05:56:55;39.03;;;17.02;;
71570;SDS011;59407;42.682;23.322;2024-03-02T05:59:20;43.30;;;19.63;;
71570;SDS011;59407;42.682;23.322;2024-03-02T06:01:46;42.90;;;18.40;;
71570;SDS011;59407;42.682;23.322;2024-03-02T06:04:12;34.10;;;16.90;;
71570;SDS011;59407;42.682;23.322;2024-03-02T06:06:38;34.67;;;16.40;;
71570;SDS011;59407;42.682;23.322;2024-03-02T06:09:05;40.28;;;16.73;;
71570;SDS011;59407;42.682;23.322;2024-03-02T06:11:33;34.60;;;14.48;;
71570;SDS011;59407;42.682;23.322;2024-03-02T06:13:59;36.97;;;15.65;;
71570;SDS011;59407;42.682;23.322;2024-03-02T06:16:24;36.97;;;15.77;;
71570;SDS011;59407;42.682;23.322;2024-03-02T06:18:50;30.30;;;14.77;;
71570;SDS011;59407;42.682;23.322;2024-03-02T06:21:16;33.50;;;14.07;;
71570;SDS011;59407;42.682;23.322;2024-03-02T06:23:43;38.30;;;14.18;;
71570;SDS011;59407;42.682;23.322;2024-03-02T06:26:09;36.78;;;16.58;;
71570;SDS011;59407;42.682;23.322;2024-03-02T06:28:34;40.77;;;17.40;;
71570;SDS011;59407;42.682;23.322;2024-03-02T06:31:00;48.83;;;22.90;;
71570;SDS011;59407;42.682;23.322;2024-03-02T06:33:26;58.78;;;27.02;;
71570;SDS011;59407;42.682;23.322;2024-03-02T06:35:51;41.73;;;18.90;;
71570;SDS011;59407;42.682;23.322;2024-03-02T06:38:17;34.72;;;16.10;;
71570;SDS011;59407;42.682;23.322;2024-03-02T06:40:42;34.87;;;15.73;;
71570;SDS011;59407;42.682;23.322;2024-03-02T06:43:08;39.77;;;14.23;;
71570;SDS011;59407;42.682;23.322;2024-03-02T06:45:33;35.80;;;15.63;;
71570;SDS011;59407;42.682;23.322;2024-03-02T06:47:59;41.50;;;16.93;;
71570;SDS011;59407;42.682;23.322;2024-03-02T06:50:25;32.88;;;15.38;;
71570;SDS011;59407;42.682;23.322;2024-03-02T06:52:50;38.00;;;15.17;;
71570;SDS011;59407;42.682;23.322;2024-03-02T06:55:16;32.70;;;14.27;;
71570;SDS011;59407;42.682;23.322;2024-03-02T06:57:41;39.93;;;16.13;;
71570;SDS011;59407;42.682;23.322;2024-03-02T07:00:07;37.23;;;15.63;;
71570;SDS011;59407;42.682;23.322;2024-03-02T07:02:34;36.60;;;15.30;;
71570;SDS011;59407;42.682;23.322;2024-03-02T07:05:01;34.80;;;14.57;;
71570;SDS011;59407;42.682;23.322;2024-03-02T07:07:26;37.00;;;14.65;;
71570;SDS011;59407;42.682;23.322;2024-03-02T07:09:52;33.63;;;15.50;;
71570;SDS011;59407;42.682;23.322;2024-03-02T07:12:17;36.30;;;15.13;;
71570;SDS011;59407;42.682;23.322;2024-03-02T07:14:43;31.92;;;14.73;;
71570;SDS011;59407;42.682;23.322;2024-03-02T07:17:36;30.63;;;14.90;;
71570;SDS011;59407;42.682;23.322;2024-03-02T07:20:02;32.13;;;14.35;;
71570;SDS011;59407;42.682;23.322;2024-03-02T07:22:28;35.17;;;14.40;;
71570;SDS011;59407;42.682;23.322;2024-03-02T07:24:54;40.83;;;15.27;;
71570;SDS011;59407;42.682;23.322;2024-03-02T07:27:20;36.77;;;14.87;;
71570;SDS011;59407;42.682;23.322;2024-03-02T07:29:46;32.47;;;14.70;;
71570;SDS011;59407;42.682;23.322;2024-03-02T07:32:11;37.23;;;15.00;;
71570;SDS011;59407;42.682;23.322;2024-03-02T07:34:37;34.40;;;15.07;;
71570;SDS011;59407;42.682;23.322;2024-03-02T07:37:02;34.97;;;16.20;;
71570;SDS011;59407;42.682;23.322;2024-03-02T07:39:28;45.73;;;16.40;;
71570;SDS011;59407;42.682;23.322;2024-03-02T07:41:54;36.90;;;15.63;;
71570;SDS011;59407;42.682;23.322;2024-03-02T07:44:20;35.65;;;14.05;;
71570;SDS011;59407;42.682;23.322;2024-03-02T07:46:46;35.70;;;14.90;;
71570;SDS011;59407;42.682;23.322;2024-03-02T07:49:12;39.10;;;15.43;;
71570;SDS011;59407;42.682;23.322;2024-03-02T07:51:41;35.15;;;13.93;;
71570;SDS011;59407;42.682;23.322;2024-03-02T07:54:07;36.33;;;14.10;;
71570;SDS011;59407;42.682;23.322;2024-03-02T07:56:32;31.77;;;15.07;;
71570;SDS011;59407;42.682;23.322;2024-03-02T07:58:58;38.37;;;16.50;;
71570;SDS011;59407;42.682;23.322;2024-03-02T08:01:29;35.35;;;16.20;;
71570;SDS011;59407;42.682;23.322;2024-03-02T08:04:00;38.22;;;16.40;;
71570;SDS011;59407;42.682;23.322;2024-03-02T08:06:26;30.85;;;15.68;;
71570;SDS011;59407;42.682;23.322;2024-03-02T08:08:55;37.33;;;17.47;;
71570;SDS011;59407;42.682;23.322;2024-03-02T08:11:21;73.15;;;46.17;;
71570;SDS011;59407;42.682;23.322;2024-03-02T08:13:47;34.47;;;14.80;;
71570;SDS011;59407;42.682;23.322;2024-03-02T08:16:13;32.70;;;14.23;;
71570;SDS011;59407;42.682;23.322;2024-03-02T08:18:44;31.45;;;13.85;;
71570;SDS011;59407;42.682;23.322;2024-03-02T08:21:11;36.80;;;14.50;;
71570;SDS011;59407;42.682;23.322;2024-03-02T08:23:37;35.28;;;14.07;;
71570;SDS011;59407;42.682;23.322;2024-03-02T08:26:03;29.63;;;14.17;;
71570;SDS011;59407;42.682;23.322;2024-03-02T08:28:29;27.45;;;12.73;;
71570;SDS011;59407;42.682;23.322;2024-03-02T08:30:55;31.83;;;13.67;;
71570;SDS011;59407;42.682;23.322;2024-03-02T08:33:21;26.92;;;12.88;;
71570;SDS011;59407;42.682;23.322;2024-03-02T08:35:46;31.30;;;13.70;;
71570;SDS011;59407;42.682;23.322;2024-03-02T08:38:12;29.20;;;13.25;;
71570;SDS011;59407;42.682;23.322;2024-03-02T08:40:37;29.77;;;11.47;;
71570;SDS011;59407;42.682;23.322;2024-03-02T08:43:03;29.07;;;12.80;;
71570;SDS011;59407;42.682;23.322;2024-03-02T08:45:28;33.45;;;12.40;;
71570;SDS011;59407;42.682;23.322;2024-03-02T08:47:54;29.80;;;14.17;;
71570;SDS011;59407;42.682;23.322;2024-03-02T08:50:19;27.53;;;13.43;;
71570;SDS011;59407;42.682;23.322;2024-03-02T08:52:45;35.45;;;14.38;;
71570;SDS011;59407;42.682;23.322;2024-03-02T08:55:10;29.93;;;12.37;;
71570;SDS011;59407;42.682;23.322;2024-03-02T08:57:36;27.30;;;12.30;;
71570;SDS011;59407;42.682;23.322;2024-03-02T09:00:02;28.27;;;12.43;;
71570;SDS011;59407;42.682;23.322;2024-03-02T09:02:28;32.53;;;13.85;;
71570;SDS011;59407;42.682;23.322;2024-03-02T09:04:53;29.90;;;12.33;;
71570;SDS011;59407;42.682;23.322;2024-03-02T09:07:19;28.10;;;13.07;;
71570;SDS011;59407;42.682;23.322;2024-03-02T09:09:44;29.57;;;15.17;;
71570;SDS011;59407;42.682;23.322;2024-03-02T09:12:10;44.97;;;20.42;;
71570;SDS011;59407;42.682;23.322;2024-03-02T09:14:36;36.27;;;15.80;;
71570;SDS011;59407;42.682;23.322;2024-03-02T09:17:02;31.58;;;15.25;;
71570;SDS011;59407;42.682;23.322;2024-03-02T09:19:28;33.13;;;14.07;;
71570;SDS011;59407;42.682;23.322;2024-03-02T09:21:54;27.87;;;13.83;;
71570;SDS011;59407;42.682;23.322;2024-03-02T09:24:21;38.47;;;19.35;;
71570;SDS011;59407;42.682;23.322;2024-03-02T09:26:46;27.05;;;12.95;;
71570;SDS011;59407;42.682;23.322;2024-03-02T09:29:12;27.63;;;12.53;;
71570;SDS011;59407;42.682;23.322;2024-03-02T09:31:41;22.30;;;11.55;;
71570;SDS011;59407;42.682;23.322;2024-03-02T09:34:07;30.92;;;12.45;;
71570;SDS011;59407;42.682;23.322;2024-03-02T09:36:33;28.70;;;12.73;;
71570;SDS011;59407;42.682;23.322;2024-03-02T09:38:58;28.63;;;13.10;;
71570;SDS011;59407;42.682;23.322;2024-03-02T09:41:24;29.67;;;12.02;;
71570;SDS011;59407;42.682;23.322;2024-03-02T09:43:50;25.70;;;12.60;;
71570;SDS011;59407;42.682;23.322;2024-03-02T09:46:15;28.45;;;13.15;;
71570;SDS011;59407;42.682;23.322;2024-03-02T09:48:41;27.57;;;12.37;;
71570;SDS011;59407;42.682;23.322;2024-03-02T09:51:06;27.07;;;12.80;;
71570;SDS011;59407;42.682;23.322;2024-03-02T09:53:33;27.55;;;11.95;;
71570;SDS011;59407;42.682;23.322;2024-03-02T09:55:59;32.05;;;14.52;;
71570;SDS011;59407;42.682;23.322;2024-03-02T09:58:25;28.50;;;13.75;;
71570;SDS011;59407;42.682;23.322;2024-03-02T10:00:51;29.37;;;13.23;;
71570;SDS011;59407;42.682;23.322;2024-03-02T10:03:18;29.80;;;12.77;;
71570;SDS011;59407;42.682;23.322;2024-03-02T10:05:44;25.48;;;11.85;;
71570;SDS011;59407;42.682;23.322;2024-03-02T10:08:09;25.38;;;12.65;;
71570;SDS011;59407;42.682;23.322;2024-03-02T10:10:35;31.27;;;13.77;;
71570;SDS011;59407;42.682;23.322;2024-03-02T10:13:05;27.35;;;13.45;;
71570;SDS011;59407;42.682;23.322;2024-03-02T10:15:34;32.10;;;13.00;;
71570;SDS011;59407;42.682;23.322;2024-03-02T10:18:02;27.58;;;13.95;;
71570;SDS011;59407;42.682;23.322;2024-03-02T10:20:28;27.45;;;13.30;;
71570;SDS011;59407;42.682;23.322;2024-03-02T10:23:14;32.17;;;12.80;;
71570;SDS011;59407;42.682;23.322;2024-03-02T10:25:41;30.17;;;13.13;;
71570;SDS011;59407;42.682;23.322;2024-03-02T10:28:07;35.60;;;15.30;;
71570;SDS011;59407;42.682;23.322;2024-03-02T10:30:33;33.65;;;14.73;;
71570;SDS011;59407;42.682;23.322;2024-03-02T10:33:02;30.57;;;14.33;;
71570;SDS011;59407;42.682;23.322;2024-03-02T10:35:28;26.55;;;13.35;;
71570;SDS011;59407;42.682;23.322;2024-03-02T10:37:54;30.95;;;13.98;;
71570;SDS011;59407;42.682;23.322;2024-03-02T10:40:22;33.00;;;13.97;;
71570;SDS011;59407;42.682;23.322;2024-03-02T10:42:49;29.80;;;13.45;;
71570;SDS011;59407;42.682;23.322;2024-03-02T10:45:16;30.67;;;13.45;;
71570;SDS011;59407;42.682;23.322;2024-03-02T10:47:44;30.03;;;13.83;;
71570;SDS011;59407;42.682;23.322;2024-03-02T10:50:12;27.63;;;13.13;;
71570;SDS011;59407;42.682;23.322;2024-03-02T10:52:38;29.27;;;12.77;;
71570;SDS011;59407;42.682;23.322;2024-03-02T10:55:04;26.60;;;12.43;;
71570;SDS011;59407;42.682;23.322;2024-03-02T10:57:41;25.25;;;12.10;;
71570;SDS011;59407;42.682;23.322;2024-03-02T11:00:10;26.35;;;11.38;;
71570;SDS011;59407;42.682;23.322;2024-03-02T11:02:46;28.83;;;12.18;;
71570;SDS011;59407;42.682;23.322;2024-03-02T11:05:23;27.03;;;11.57;;
71570;SDS011;59407;42.682;23.322;2024-03-02T11:07:57;30.02;;;13.20;;
71570;SDS011;59407;42.682;23.322;2024-03-02T11:10:33;27.17;;;12.93;;
71570;SDS011;59407;42.682;23.322;2024-03-02T11:13:02;27.65;;;11.88;;
71570;SDS011;59407;42.682;23.322;2024-03-02T11:15:30;25.95;;;12.15;;
71570;SDS011;59407;42.682;23.322;2024-03-02T11:17:56;24.33;;;12.27;;
71570;SDS011;59407;42.682;23.322;2024-03-02T11:20:22;33.35;;;12.93;;
71570;SDS011;59407;42.682;23.322;2024-03-02T11:22:48;28.23;;;12.32;;
71570;SDS011;59407;42.682;23.322;2024-03-02T11:25:24;28.37;;;13.83;;
71570;SDS011;59407;42.682;23.322;2024-03-02T11:33:00;27.33;;;12.75;;
71570;SDS011;59407;42.682;23.322;2024-03-02T11:35:35;24.90;;;12.80;;
71570;SDS011;59407;42.682;23.322;2024-03-02T11:38:02;25.95;;;12.88;;
71570;SDS011;59407;42.682;23.322;2024-03-02T11:40:28;27.67;;;12.35;;
71570;SDS011;59407;42.682;23.322;2024-03-02T11:42:54;26.85;;;11.38;;
71570;SDS011;59407;42.682;23.322;2024-03-02T11:45:26;25.07;;;11.83;;
71570;SDS011;59407;42.682;23.322;2024-03-02T11:47:56;27.90;;;13.20;;
71570;SDS011;59407;42.682;23.322;2024-03-02T11:53:07;27.48;;;11.50;;
71570;SDS011;59407;42.682;23.322;2024-03-02T11:55:37;25.73;;;13.17;;
71570;SDS011;59407;42.682;23.322;2024-03-02T11:58:03;26.52;;;11.38;;
71570;SDS011;59407;42.682;23.322;2024-03-02T12:00:29;24.27;;;11.60;;
71570;SDS011;59407;42.682;23.322;2024-03-02T12:03:08;24.98;;;11.57;;
71570;SDS011;59407;42.682;23.322;2024-03-02T12:05:35;29.42;;;13.40;;
71570;SDS011;59407;42.682;23.322;2024-03-02T12:08:01;29.40;;;13.67;;
71570;SDS011;59407;42.682;23.322;2024-03-02T12:10:31;24.42;;;12.52;;
71570;SDS011;59407;42.682;23.322;2024-03-02T12:15:25;27.67;;;12.10;;
71570;SDS011;59407;42.682;23.322;2024-03-02T12:17:52;25.27;;;12.00;;
71570;SDS011;59407;42.682;23.322;2024-03-02T12:20:19;26.00;;;11.83;;
71570;SDS011;59407;42.682;23.322;2024-03-02T12:22:44;25.48;;;12.73;;
71570;SDS011;59407;42.682;23.322;2024-03-02T12:25:11;28.05;;;12.13;;
71570;SDS011;59407;42.682;23.322;2024-03-02T12:27:36;26.37;;;12.27;;
71570;SDS011;59407;42.682;23.322;2024-03-02T12:30:03;26.70;;;12.40;;
71570;SDS011;59407;42.682;23.322;2024-03-02T12:32:29;25.13;;;11.93;;
71570;SDS011;59407;42.682;23.322;2024-03-02T12:34:55;24.10;;;11.37;;
71570;SDS011;59407;42.682;23.322;2024-03-02T12:37:20;25.87;;;12.70;;
71570;SDS011;59407;42.682;23.322;2024-03-02T12:39:46;28.63;;;13.70;;
71570;SDS011;59407;42.682;23.322;2024-03-02T12:42:12;25.63;;;13.05;;
71570;SDS011;59407;42.682;23.322;2024-03-02T12:44:37;26.57;;;12.97;;
71570;SDS011;59407;42.682;23.322;2024-03-02T12:47:03;27.60;;;11.77;;
71570;SDS011;59407;42.682;23.322;2024-03-02T12:49:29;23.00;;;11.20;;
71570;SDS011;59407;42.682;23.322;2024-03-02T12:51:55;24.23;;;11.32;;
71570;SDS011;59407;42.682;23.322;2024-03-02T12:54:22;22.33;;;12.47;;
71570;SDS011;59407;42.682;23.322;2024-03-02T12:56:50;25.45;;;10.75;;
71570;SDS011;59407;42.682;23.322;2024-03-02T12:59:19;25.13;;;12.38;;
71570;SDS011;59407;42.682;23.322;2024-03-02T13:01:53;24.17;;;11.18;;
71570;SDS011;59407;42.682;23.322;2024-03-02T13:04:25;20.60;;;9.88;;
71570;SDS011;59407;42.682;23.322;2024-03-02T13:06:52;22.27;;;10.53;;
71570;SDS011;59407;42.682;23.322;2024-03-02T13:09:18;20.23;;;10.20;;
71570;SDS011;59407;42.682;23.322;2024-03-02T13:11:44;21.85;;;11.80;;
71570;SDS011;59407;42.682;23.322;2024-03-02T13:14:12;29.20;;;17.03;;
71570;SDS011;59407;42.682;23.322;2024-03-02T13:16:41;21.83;;;11.00;;
71570;SDS011;59407;42.682;23.322;2024-03-02T13:19:17;25.77;;;12.23;;
71570;SDS011;59407;42.682;23.322;2024-03-02T13:21:44;21.80;;;11.60;;
71570;SDS011;59407;42.682;23.322;2024-03-02T13:24:09;29.08;;;13.02;;
71570;SDS011;59407;42.682;23.322;2024-03-02T13:26:35;22.73;;;11.70;;
71570;SDS011;59407;42.682;23.322;2024-03-02T13:29:01;25.70;;;12.82;;
71570;SDS011;59407;42.682;23.322;2024-03-02T13:31:26;24.87;;;11.87;;
71570;SDS011;59407;42.682;23.322;2024-03-02T13:33:52;23.33;;;12.13;;
71570;SDS011;59407;42.682;23.322;2024-03-02T13:36:17;20.08;;;10.15;;
71570;SDS011;59407;42.682;23.322;2024-03-02T13:38:44;19.83;;;10.60;;
71570;SDS011;59407;42.682;23.322;2024-03-02T13:41:10;23.33;;;11.45;;
71570;SDS011;59407;42.682;23.322;2024-03-02T13:43:36;20.55;;;11.00;;
71570;SDS011;59407;42.682;23.322;2024-03-02T13:46:03;20.23;;;11.23;;
71570;SDS011;59407;42.682;23.322;2024-03-02T13:48:29;22.67;;;11.18;;
71570;SDS011;59407;42.682;23.322;2024-03-02T13:50:55;23.52;;;11.95;;
71570;SDS011;59407;42.682;23.322;2024-03-02T13:53:21;25.30;;;11.87;;
71570;SDS011;59407;42.682;23.322;2024-03-02T13:55:47;22.57;;;11.17;;
71570;SDS011;59407;42.682;23.322;2024-03-02T13:58:13;22.95;;;12.20;;
71570;SDS011;59407;42.682;23.322;2024-03-02T14:00:38;24.67;;;11.93;;
71570;SDS011;59407;42.682;23.322;2024-03-02T14:03:05;23.50;;;10.97;;
71570;SDS011;59407;42.682;23.322;2024-03-02T14:05:31;19.65;;;11.07;;
71570;SDS011;59407;42.682;23.322;2024-03-02T14:07:57;21.23;;;10.95;;
71570;SDS011;59407;42.682;23.322;2024-03-02T14:10:24;22.00;;;11.87;;
71570;SDS011;59407;42.682;23.322;2024-03-02T14:12:49;22.35;;;11.60;;
71570;SDS011;59407;42.682;23.322;2024-03-02T14:15:15;26.80;;;12.63;;
71570;SDS011;59407;42.682;23.322;2024-03-02T14:17:40;18.88;;;10.43;;
71570;SDS011;59407;42.682;23.322;2024-03-02T14:20:06;23.67;;;11.17;;
71570;SDS011;59407;42.682;23.322;2024-03-02T14:22:32;17.88;;;10.70;;
71570;SDS011;59407;42.682;23.322;2024-03-02T14:24:59;22.70;;;11.70;;
71570;SDS011;59407;42.682;23.322;2024-03-02T14:27:24;22.60;;;10.77;;
71570;SDS011;59407;42.682;23.322;2024-03-02T14:29:50;24.58;;;13.48;;
71570;SDS011;59407;42.682;23.322;2024-03-02T14:32:16;24.23;;;11.83;;
71570;SDS011;59407;42.682;23.322;2024-03-02T14:34:41;21.20;;;10.97;;
71570;SDS011;59407;42.682;23.322;2024-03-02T14:37:07;21.92;;;10.38;;
71570;SDS011;59407;42.682;23.322;2024-03-02T14:39:32;22.70;;;11.20;;
71570;SDS011;59407;42.682;23.322;2024-03-02T14:42:00;21.95;;;10.98;;
71570;SDS011;59407;42.682;23.322;2024-03-02T14:44:26;24.75;;;12.00;;
71570;SDS011;59407;42.682;23.322;2024-03-02T14:46:51;22.87;;;11.70;;
71570;SDS011;59407;42.682;23.322;2024-03-02T14:49:17;24.35;;;12.05;;
71570;SDS011;59407;42.682;23.322;2024-03-02T14:51:43;22.73;;;10.60;;
71570;SDS011;59407;42.682;23.322;2024-03-02T14:54:09;24.73;;;11.27;;
71570;SDS011;59407;42.682;23.322;2024-03-02T14:56:34;24.47;;;12.33;;
71570;SDS011;59407;42.682;23.322;2024-03-02T14:59:00;26.07;;;12.37;;
71570;SDS011;59407;42.682;23.322;2024-03-02T15:01:25;21.98;;;12.25;;
71570;SDS011;59407;42.682;23.322;2024-03-02T15:03:51;22.37;;;11.93;;
71570;SDS011;59407;42.682;23.322;2024-03-02T15:06:16;23.37;;;11.43;;
71570;SDS011;59407;42.682;23.322;2024-03-02T15:08:42;32.83;;;13.17;;
71570;SDS011;59407;42.682;23.322;2024-03-02T15:11:08;26.90;;;12.75;;
71570;SDS011;59407;42.682;23.322;2024-03-02T15:13:34;23.95;;;12.75;;
71570;SDS011;59407;42.682;23.322;2024-03-02T15:16:00;24.20;;;12.43;;
71570;SDS011;59407;42.682;23.322;2024-03-02T15:18:25;26.93;;;13.67;;
71570;SDS011;59407;42.682;23.322;2024-03-02T15:20:52;26.53;;;13.47;;
71570;SDS011;59407;42.682;23.322;2024-03-02T15:23:18;26.42;;;13.20;;
71570;SDS011;59407;42.682;23.322;2024-03-02T15:25:43;27.23;;;12.77;;
71570;SDS011;59407;42.682;23.322;2024-03-02T15:28:09;26.47;;;14.10;;
71570;SDS011;59407;42.682;23.322;2024-03-02T15:30:34;28.88;;;15.48;;
71570;SDS011;59407;42.682;23.322;2024-03-02T15:33:00;27.67;;;14.03;;
71570;SDS011;59407;42.682;23.322;2024-03-02T15:35:25;31.48;;;15.10;;
71570;SDS011;59407;42.682;23.322;2024-03-02T15:37:51;27.70;;;13.50;;
71570;SDS011;59407;42.682;23.322;2024-03-02T15:40:17;27.70;;;14.57;;
71570;SDS011;59407;42.682;23.322;2024-03-02T15:42:42;35.05;;;16.27;;
71570;SDS011;59407;42.682;23.322;2024-03-02T15:45:08;30.80;;;15.13;;
71570;SDS011;59407;42.682;23.322;2024-03-02T15:47:34;28.95;;;13.90;;
71570;SDS011;59407;42.682;23.322;2024-03-02T15:50:01;28.23;;;14.18;;
71570;SDS011;59407;42.682;23.322;2024-03-02T15:52:27;26.92;;;14.18;;
71570;SDS011;59407;42.682;23.322;2024-03-02T15:54:53;30.13;;;14.90;;
71570;SDS011;59407;42.682;23.322;2024-03-02T15:57:19;29.47;;;15.00;;
71570;SDS011;59407;42.682;23.322;2024-03-02T15:59:44;29.85;;;14.07;;
71570;SDS011;59407;42.682;23.322;2024-03-02T16:02:10;33.77;;;13.77;;
71570;SDS011;59407;42.682;23.322;2024-03-02T16:04:35;30.80;;;14.77;;
71570;SDS011;59407;42.682;23.322;2024-03-02T16:07:01;26.10;;;13.40;;
71570;SDS011;59407;42.682;23.322;2024-03-02T16:09:26;27.50;;;13.80;;
71570;SDS011;59407;42.682;23.322;2024-03-02T16:11:52;34.53;;;16.77;;
71570;SDS011;59407;42.682;23.322;2024-03-02T16:14:17;34.92;;;16.70;;
71570;SDS011;59407;42.682;23.322;2024-03-02T16:16:43;28.37;;;14.77;;
71570;SDS011;59407;42.682;23.322;2024-03-02T16:19:09;31.67;;;15.80;;
71570;SDS011;59407;42.682;23.322;2024-03-02T16:21:35;29.90;;;16.30;;
71570;SDS011;59407;42.682;23.322;2024-03-02T16:24:01;34.90;;;17.40;;
71570;SDS011;59407;42.682;23.322;2024-03-02T16:26:26;29.37;;;15.23;;
71570;SDS011;59407;42.682;23.322;2024-03-02T16:28:52;35.70;;;18.43;;
71570;SDS011;59407;42.682;23.322;2024-03-02T16:31:17;37.08;;;18.60;;
71570;SDS011;59407;42.682;23.322;2024-03-02T16:33:43;33.47;;;18.53;;
71570;SDS011;59407;42.682;23.322;2024-03-02T16:36:09;33.08;;;17.05;;
71570;SDS011;59407;42.682;23.322;2024-03-02T16:38:35;31.35;;;17.40;;
71570;SDS011;59407;42.682;23.322;2024-03-02T16:41:01;29.67;;;15.93;;
71570;SDS011;59407;42.682;23.322;2024-03-02T16:43:26;28.70;;;16.30;;
71570;SDS011;59407;42.682;23.322;2024-03-02T16:45:52;34.77;;;16.07;;
71570;SDS011;59407;42.682;23.322;2024-03-02T16:48:17;32.33;;;15.13;;
71570;SDS011;59407;42.682;23.322;2024-03-02T16:50:43;33.23;;;16.23;;
71570;SDS011;59407;42.682;23.322;2024-03-02T16:53:11;32.72;;;17.48;;
71570;SDS011;59407;42.682;23.322;2024-03-02T16:55:37;32.88;;;16.77;;
71570;SDS011;59407;42.682;23.322;2024-03-02T16:58:02;30.83;;;16.00;;
71570;SDS011;59407;42.682;23.322;2024-03-02T17:00:28;28.40;;;16.43;;
71570;SDS011;59407;42.682;23.322;2024-03-02T17:02:54;36.22;;;18.63;;
71570;SDS011;59407;42.682;23.322;2024-03-02T17:05:19;33.00;;;17.60;;
71570;SDS011;59407;42.682;23.322;2024-03-02T17:07:49;37.70;;;19.83;;
71570;SDS011;59407;42.682;23.322;2024-03-02T17:10:15;39.00;;;18.67;;
71570;SDS011;59407;42.682;23.322;2024-03-02T17:12:40;33.10;;;18.10;;
71570;SDS011;59407;42.682;23.322;2024-03-02T17:15:06;33.10;;;17.70;;
71570;SDS011;59407;42.682;23.322;2024-03-02T17:17:32;38.25;;;18.15;;
71570;SDS011;59407;42.682;23.322;2024-03-02T17:19:58;33.93;;;18.10;;
71570;SDS011;59407;42.682;23.322;2024-03-02T17:22:24;31.33;;;16.60;;
71570;SDS011;59407;42.682;23.322;2024-03-02T17:24:50;28.48;;;14.65;;
71570;SDS011;59407;42.682;23.322;2024-03-02T17:27:17;33.00;;;15.75;;
71570;SDS011;59407;42.682;23.322;2024-03-02T17:29:44;29.67;;;15.20;;
71570;SDS011;59407;42.682;23.322;2024-03-02T17:32:09;32.40;;;15.95;;
71570;SDS011;59407;42.682;23.322;2024-03-02T17:34:35;35.40;;;17.13;;
71570;SDS011;59407;42.682;23.322;2024-03-02T17:37:00;29.33;;;16.40;;
71570;SDS011;59407;42.682;23.322;2024-03-02T17:39:26;40.93;;;18.50;;
71570;SDS011;59407;42.682;23.322;2024-03-02T17:41:51;37.90;;;18.63;;
71570;SDS011;59407;42.682;23.322;2024-03-02T17:44:18;38.53;;;17.35;;
71570;SDS011;59407;42.682;23.322;2024-03-02T17:46:44;34.45;;;17.08;;
71570;SDS011;59407;42.682;23.322;2024-03-02T17:49:10;30.13;;;16.33;;
71570;SDS011;59407;42.682;23.322;2024-03-02T17:51:35;38.03;;;17.75;;
71570;SDS011;59407;42.682;23.322;2024-03-02T17:54:01;38.30;;;16.97;;
71570;SDS011;59407;42.682;23.322;2024-03-02T17:56:26;30.50;;;16.33;;
71570;SDS011;59407;42.682;23.322;2024-03-02T17:58:52;34.17;;;18.00;;
71570;SDS011;59407;42.682;23.322;2024-03-02T18:01:17;35.13;;;18.40;;
71570;SDS011;59407;42.682;23.322;2024-03-02T18:03:43;35.87;;;19.03;;
71570;SDS011;59407;42.682;23.322;2024-03-02T18:06:08;36.88;;;19.33;;
71570;SDS011;59407;42.682;23.322;2024-03-02T18:08:34;40.10;;;19.57;;
71570;SDS011;59407;42.682;23.322;2024-03-02T18:11:00;44.40;;;20.73;;
71570;SDS011;59407;42.682;23.322;2024-03-02T18:13:25;41.93;;;19.07;;
71570;SDS011;59407;42.682;23.322;2024-03-02T18:15:51;38.80;;;18.85;;
71570;SDS011;59407;42.682;23.322;2024-03-02T18:18:16;37.10;;;20.40;;
71570;SDS011;59407;42.682;23.322;2024-03-02T18:20:42;36.90;;;19.37;;
71570;SDS011;59407;42.682;23.322;2024-03-02T18:23:09;35.58;;;17.75;;
71570;SDS011;59407;42.682;23.322;2024-03-02T18:25:34;36.60;;;19.67;;
71570;SDS011;59407;42.682;23.322;2024-03-02T18:28:00;40.03;;;19.30;;
71570;SDS011;59407;42.682;23.322;2024-03-02T18:30:25;37.37;;;17.50;;
71570;SDS011;59407;42.682;23.322;2024-03-02T18:32:51;34.50;;;18.63;;
71570;SDS011;59407;42.682;23.322;2024-03-02T18:35:16;41.10;;;19.25;;
71570;SDS011;59407;42.682;23.322;2024-03-02T18:37:43;41.50;;;19.63;;
71570;SDS011;59407;42.682;23.322;2024-03-02T18:40:10;43.78;;;21.10;;
71570;SDS011;59407;42.682;23.322;2024-03-02T18:42:36;36.15;;;20.00;;
71570;SDS011;59407;42.682;23.322;2024-03-02T18:45:02;40.50;;;19.13;;
71570;SDS011;59407;42.682;23.322;2024-03-02T18:47:30;42.05;;;19.40;;
71570;SDS011;59407;42.682;23.322;2024-03-02T18:49:59;40.00;;;20.73;;
71570;SDS011;59407;42.682;23.322;2024-03-02T18:52:27;45.78;;;20.83;;
71570;SDS011;59407;42.682;23.322;2024-03-02T18:54:53;41.57;;;20.80;;
71570;SDS011;59407;42.682;23.322;2024-03-02T18:57:19;45.05;;;21.77;;
71570;SDS011;59407;42.682;23.322;2024-03-02T18:59:44;42.70;;;22.43;;
71570;SDS011;59407;42.682;23.322;2024-03-02T19:02:10;45.07;;;21.33;;
71570;SDS011;59407;42.682;23.322;2024-03-02T19:04:35;40.63;;;21.45;;
71570;SDS011;59407;42.682;23.322;2024-03-02T19:07:01;42.67;;;19.93;;
71570;SDS011;59407;42.682;23.322;2024-03-02T19:09:26;43.87;;;21.43;;
71570;SDS011;59407;42.682;23.322;2024-03-02T19:11:52;45.53;;;22.67;;
71570;SDS011;59407;42.682;23.322;2024-03-02T19:14:17;44.20;;;21.43;;
71570;SDS011;59407;42.682;23.322;2024-03-02T19:16:43;46.40;;;21.73;;
71570;SDS011;59407;42.682;23.322;2024-03-02T19:19:09;41.25;;;20.85;;
71570;SDS011;59407;42.682;23.322;2024-03-02T19:21:34;41.77;;;22.23;;
71570;SDS011;59407;42.682;23.322;2024-03-02T19:24:00;46.25;;;23.08;;